createdAt,value
2017-11-22T00:02:05.986Z,82.60
2017-11-22T00:04:34.126Z,82.40
2017-11-22T00:07:02.290Z,82.30
2017-11-22T00:09:30.443Z,82.30
2017-11-22T00:11:58.758Z,82.20
2017-11-22T00:14:26.886Z,82.00
2017-11-22T00:16:55.026Z,82.00
2017-11-22T00:19:23.189Z,82.00
2017-11-22T00:21:51.337Z,81.70
2017-11-22T00:24:19.521Z,81.90
2017-11-22T00:26:47.654Z,81.70
2017-11-22T00:29:15.960Z,81.80
2017-11-22T00:31:44.098Z,81.60
2017-11-22T00:34:12.246Z,81.70
2017-11-22T00:36:40.429Z,81.80
2017-11-22T00:39:08.564Z,81.90
2017-11-22T00:41:37.500Z,82.00
2017-11-22T00:44:05.640Z,82.00
2017-11-22T00:46:33.785Z,81.80
2017-11-22T00:49:01.925Z,81.80
2017-11-22T00:51:30.070Z,81.60
2017-11-22T00:53:58.239Z,81.30
2017-11-22T00:56:27.139Z,81.30
2017-11-22T00:58:55.309Z,81.30
2017-11-22T01:01:23.441Z,81.20
2017-11-22T01:03:51.725Z,80.90
2017-11-22T01:06:20.687Z,80.40
2017-11-22T01:08:48.814Z,80.40
2017-11-22T01:11:17.734Z,80.20
2017-11-22T01:13:45.876Z,80.20
2017-11-22T01:16:14.047Z,80.00
2017-11-22T01:18:42.177Z,80.10
2017-11-22T01:21:10.468Z,79.90
2017-11-22T01:23:38.642Z,79.90
2017-11-22T01:26:06.783Z,79.80
2017-11-22T01:28:34.919Z,79.90
2017-11-22T01:31:03.159Z,79.40
2017-11-22T01:33:31.302Z,79.30
2017-11-22T01:35:59.469Z,79.10
2017-11-22T01:38:27.633Z,79.10
2017-11-22T01:40:55.890Z,78.90
2017-11-22T01:43:24.034Z,79.20
2017-11-22T01:45:52.200Z,79.30
2017-11-22T01:48:20.334Z,79.10
2017-11-22T01:50:48.497Z,79.20
2017-11-22T01:53:16.663Z,79.10
2017-11-22T01:55:44.806Z,79.10
2017-11-22T01:58:13.085Z,78.90
2017-11-22T02:00:41.990Z,79.30
2017-11-22T02:03:10.902Z,79.00
2017-11-22T02:05:39.063Z,79.00
2017-11-22T02:08:07.217Z,79.00
2017-11-22T02:10:35.391Z,78.90
2017-11-22T02:13:04.329Z,78.40
2017-11-22T02:15:32.470Z,78.40
2017-11-22T02:18:00.743Z,78.50
2017-11-22T02:20:29.629Z,78.60
2017-11-22T02:22:57.798Z,78.60
2017-11-22T02:25:26.710Z,79.10
2017-11-22T02:27:54.878Z,79.10
2017-11-22T02:30:23.101Z,79.10
2017-11-22T02:32:51.357Z,78.90
2017-11-22T02:35:20.261Z,78.60
2017-11-22T02:37:48.404Z,78.60
2017-11-22T02:40:16.565Z,78.60
2017-11-22T02:42:44.708Z,78.50
2017-11-22T02:45:12.873Z,78.50
2017-11-22T02:47:41.014Z,78.80
2017-11-22T02:50:09.304Z,78.90
2017-11-22T02:52:37.474Z,79.00
2017-11-22T02:55:05.607Z,78.90
2017-11-22T02:57:33.754Z,78.90
2017-11-22T03:00:01.910Z,78.80
2017-11-22T03:02:30.079Z,78.80
2017-11-22T03:04:58.222Z,78.80
2017-11-22T03:07:26.511Z,78.60
2017-11-22T03:09:54.645Z,78.30
2017-11-22T03:12:22.825Z,78.40
2017-11-22T03:14:51.001Z,78.30
2017-11-22T03:17:19.896Z,78.10
2017-11-22T03:19:48.064Z,78.10
2017-11-22T03:22:16.197Z,78.10
2017-11-22T03:24:44.468Z,78.30
2017-11-22T03:27:12.609Z,78.40
2017-11-22T03:29:40.794Z,78.40
2017-11-22T03:32:08.925Z,78.40
2017-11-22T03:34:37.839Z,78.40
2017-11-22T03:37:05.994Z,78.30
2017-11-22T03:39:34.127Z,78.50
2017-11-22T03:42:02.261Z,78.50
2017-11-22T03:44:30.530Z,79.20
2017-11-22T03:46:58.672Z,80.00
2017-11-22T03:49:26.833Z,80.30
2017-11-22T03:51:54.962Z,80.20
2017-11-22T03:54:23.101Z,80.20
2017-11-22T03:56:52.027Z,80.40
2017-11-22T03:59:20.322Z,80.40
2017-11-22T04:01:48.467Z,80.70
2017-11-22T04:04:16.600Z,79.90
2017-11-22T04:06:44.766Z,79.70
2017-11-22T04:09:12.893Z,79.50
2017-11-22T04:11:41.073Z,79.70
2017-11-22T04:14:09.223Z,79.50
2017-11-22T04:16:37.419Z,79.30
2017-11-22T04:19:05.551Z,79.30
2017-11-22T04:21:33.828Z,79.50
2017-11-22T04:24:02.754Z,79.60
2017-11-22T04:26:30.881Z,79.60
2017-11-22T04:28:59.049Z,80.00
2017-11-22T04:31:27.190Z,80.00
2017-11-22T04:33:55.458Z,79.70
2017-11-22T04:36:23.618Z,79.50
2017-11-22T04:38:51.765Z,79.50
2017-11-22T04:41:20.694Z,79.10
2017-11-22T04:43:48.834Z,79.10
2017-11-22T04:46:17.005Z,79.20
2017-11-22T04:48:45.921Z,79.30
2017-11-22T04:51:14.050Z,79.20
2017-11-22T04:53:42.326Z,79.40
2017-11-22T04:56:10.463Z,79.20
2017-11-22T04:58:38.618Z,79.10
2017-11-22T05:01:06.746Z,79.30
2017-11-22T05:03:34.878Z,79.40
2017-11-22T05:06:03.037Z,79.40
2017-11-22T05:08:31.173Z,79.40
2017-11-22T05:11:00.129Z,79.60
2017-11-22T05:13:28.272Z,79.60
2017-11-22T05:15:56.406Z,79.30
2017-11-22T05:18:25.312Z,79.20
2017-11-22T05:20:53.447Z,79.40
2017-11-22T05:23:21.613Z,79.50
2017-11-22T05:25:49.768Z,79.20
2017-11-22T05:28:18.081Z,79.10
2017-11-22T05:30:46.198Z,79.20
2017-11-22T05:33:14.342Z,79.10
2017-11-22T05:35:43.327Z,79.20
2017-11-22T05:38:11.476Z,79.10
2017-11-22T05:40:39.613Z,79.20
2017-11-22T05:43:07.769Z,79.30
2017-11-22T05:45:35.911Z,79.30
2017-11-22T05:48:04.191Z,79.10
2017-11-22T05:50:32.334Z,79.10
2017-11-22T05:53:01.091Z,78.90
2017-11-22T05:55:31.750Z,79.00
2017-11-22T05:57:59.891Z,79.00
2017-11-22T06:00:28.050Z,79.10
2017-11-22T06:02:57.102Z,79.20
2017-11-22T06:05:25.274Z,79.20
2017-11-22T06:07:53.430Z,79.20
2017-11-22T06:10:21.569Z,79.20
2017-11-22T06:12:49.759Z,79.30
2017-11-22T06:15:17.889Z,79.70
2017-11-22T06:17:46.031Z,79.50
2017-11-22T06:20:14.301Z,79.60
2017-11-22T06:22:42.430Z,79.90
2017-11-22T06:25:11.365Z,81.40
2017-11-22T06:27:39.528Z,81.40
2017-11-22T06:30:07.667Z,82.10
2017-11-22T06:32:36.595Z,81.50
2017-11-22T06:35:04.749Z,81.50
2017-11-22T06:37:33.026Z,81.10
2017-11-22T06:40:01.157Z,81.00
2017-11-22T06:42:29.295Z,80.80
2017-11-22T06:44:57.469Z,81.40
2017-11-22T06:47:25.602Z,81.60
2017-11-22T06:49:54.502Z,81.10
2017-11-22T06:52:22.781Z,81.70
2017-11-22T06:54:50.914Z,80.80
2017-11-22T06:57:19.136Z,80.60
2017-11-22T06:59:47.277Z,80.60
2017-11-22T07:02:15.435Z,80.40
2017-11-22T07:04:43.593Z,80.60
2017-11-22T07:07:11.779Z,81.10
2017-11-22T07:09:39.910Z,81.40
2017-11-22T07:12:08.049Z,81.20
2017-11-22T07:14:36.347Z,81.10
2017-11-22T07:17:04.521Z,81.00
2017-11-22T07:19:32.665Z,81.00
2017-11-22T07:22:00.950Z,81.10
2017-11-22T07:24:29.878Z,81.40
2017-11-22T07:26:58.050Z,81.30
2017-11-22T07:29:26.195Z,81.40
2017-11-22T07:31:54.332Z,81.40
2017-11-22T07:34:22.607Z,81.50
2017-11-22T07:36:50.737Z,81.20
2017-11-22T07:39:18.922Z,81.20
2017-11-22T07:41:47.105Z,81.10
2017-11-22T07:44:15.272Z,81.10
2017-11-22T07:46:43.444Z,81.30
2017-11-22T07:49:11.566Z,81.30
2017-11-22T07:51:39.849Z,81.80
2017-11-22T07:54:08.750Z,82.60
2017-11-22T07:56:37.695Z,82.40
2017-11-22T07:59:05.836Z,82.40
2017-11-22T08:01:33.972Z,82.90
2017-11-22T08:04:02.145Z,82.80
2017-11-22T08:06:30.285Z,82.60
2017-11-22T08:08:58.562Z,82.60
2017-11-22T08:11:26.720Z,82.70
2017-11-22T08:13:54.884Z,82.50
2017-11-22T08:16:23.059Z,82.50
2017-11-22T08:18:51.198Z,82.60
2017-11-22T08:21:20.129Z,82.70
2017-11-22T08:23:48.270Z,82.50
2017-11-22T08:26:16.443Z,82.80
2017-11-22T08:28:45.349Z,83.60
2017-11-22T08:31:13.482Z,82.90
2017-11-22T08:33:41.768Z,83.00
2017-11-22T08:36:09.914Z,83.70
2017-11-22T08:38:38.069Z,85.00
2017-11-22T08:41:06.229Z,85.20
2017-11-22T08:43:34.406Z,85.00
2017-11-22T08:46:02.550Z,84.90
2017-11-22T08:48:30.686Z,84.90
2017-11-22T08:50:58.958Z,85.00
2017-11-22T08:53:27.098Z,84.90
2017-11-22T08:55:55.277Z,85.00
2017-11-22T08:58:23.473Z,85.00
2017-11-22T09:00:51.630Z,85.00
2017-11-22T09:03:19.921Z,85.10
2017-11-22T09:05:48.077Z,85.30
2017-11-22T09:08:16.270Z,85.20
2017-11-22T09:10:44.412Z,85.20
2017-11-22T09:13:12.573Z,85.30
2017-11-22T09:15:40.714Z,85.30
2017-11-22T09:18:08.931Z,85.20
2017-11-22T09:20:37.063Z,85.20
2017-11-22T09:23:05.364Z,85.20
2017-11-22T09:25:34.263Z,85.30
2017-11-22T09:28:02.409Z,85.40
2017-11-22T09:30:30.572Z,85.50
2017-11-22T09:32:58.702Z,85.60
2017-11-22T09:35:26.867Z,85.50
2017-11-22T09:37:54.997Z,86.00
2017-11-22T09:40:23.322Z,86.60
2017-11-22T09:42:51.458Z,86.40
2017-11-22T09:45:20.366Z,86.60
2017-11-22T09:47:48.536Z,86.60
2017-11-22T09:50:17.442Z,86.60
2017-11-22T09:52:45.582Z,86.60
2017-11-22T09:55:13.750Z,86.70
2017-11-22T09:57:42.653Z,87.70
2017-11-22T10:00:10.944Z,87.70
2017-11-22T10:02:39.097Z,87.60
2017-11-22T10:05:07.995Z,88.00
2017-11-22T10:07:36.926Z,87.70
2017-11-22T10:10:05.098Z,87.70
2017-11-22T10:12:33.250Z,87.50
2017-11-22T10:15:01.441Z,87.60
2017-11-22T10:17:29.574Z,87.30
2017-11-22T10:19:58.474Z,87.70
2017-11-22T10:22:27.545Z,87.20
2017-11-22T10:24:55.689Z,87.00
2017-11-22T10:27:23.868Z,86.70
2017-11-22T10:29:51.997Z,86.80
2017-11-22T10:32:20.286Z,86.60
2017-11-22T10:34:48.432Z,86.70
2017-11-22T10:37:16.601Z,86.80
2017-11-22T10:39:44.755Z,86.90
2017-11-22T10:42:12.899Z,84.60
2017-11-22T10:44:41.081Z,84.20
2017-11-22T10:47:09.217Z,84.00
2017-11-22T10:49:37.500Z,84.00
2017-11-22T10:52:05.639Z,84.00
2017-11-22T10:54:33.845Z,83.80
2017-11-22T10:57:01.987Z,83.10
2017-11-22T10:59:30.158Z,83.50
2017-11-22T11:01:58.329Z,83.20
2017-11-22T11:04:26.465Z,83.60
2017-11-22T11:06:54.758Z,83.50
2017-11-22T11:09:22.901Z,82.20
2017-11-22T11:11:51.039Z,82.40
2017-11-22T11:14:20.001Z,82.30
2017-11-22T11:16:48.160Z,82.20
2017-11-22T11:19:16.305Z,81.50
2017-11-22T11:21:44.471Z,80.70
2017-11-22T11:24:12.607Z,80.30
2017-11-22T11:26:40.910Z,80.20
2017-11-22T11:29:09.811Z,79.20
2017-11-22T11:31:38.016Z,79.20
2017-11-22T11:34:06.159Z,76.70
2017-11-22T11:36:34.303Z,77.60
2017-11-22T11:39:02.491Z,77.10
2017-11-22T11:41:31.519Z,77.10
2017-11-22T11:43:59.658Z,77.10
2017-11-22T11:46:28.621Z,76.80
2017-11-22T11:48:56.788Z,76.70
2017-11-22T11:51:24.940Z,77.10
2017-11-22T11:53:53.110Z,77.00
2017-11-22T11:56:21.407Z,76.90
2017-11-22T11:58:49.582Z,76.40
2017-11-22T12:01:17.766Z,76.60
2017-11-22T12:03:45.889Z,76.50
2017-11-22T12:06:14.070Z,75.40
2017-11-22T12:08:42.211Z,74.50
2017-11-22T12:11:10.408Z,75.30
2017-11-22T12:13:38.562Z,74.40
2017-11-22T12:16:07.602Z,72.40
2017-11-22T12:18:35.763Z,72.40
2017-11-22T12:21:03.909Z,71.80
2017-11-22T12:23:32.841Z,70.90
2017-11-22T12:26:00.994Z,70.80
2017-11-22T12:28:29.301Z,69.50
2017-11-22T12:30:57.456Z,68.70
2017-11-22T12:33:25.576Z,70.80
2017-11-22T12:35:53.881Z,70.30
2017-11-22T12:38:22.025Z,69.80
2017-11-22T12:40:50.198Z,69.60
2017-11-22T12:43:18.346Z,69.90
2017-11-22T12:45:46.537Z,69.80
2017-11-22T12:48:14.691Z,70.00
2017-11-22T12:50:42.858Z,68.40
2017-11-22T12:53:11.038Z,68.70
2017-11-22T12:55:39.201Z,68.20
2017-11-22T12:58:07.349Z,66.70
2017-11-22T13:00:35.536Z,66.30
2017-11-22T13:03:03.697Z,66.50
2017-11-22T13:05:31.843Z,65.50
2017-11-22T13:08:00.009Z,66.20
2017-11-22T13:10:28.922Z,66.10
2017-11-22T13:12:57.976Z,66.70
2017-11-22T13:15:26.129Z,66.70
2017-11-22T13:17:54.277Z,66.30
2017-11-22T13:20:22.569Z,64.60
2017-11-22T13:22:50.710Z,64.10
2017-11-22T13:25:18.886Z,65.50
2017-11-22T13:27:47.854Z,65.70
2017-11-22T13:30:16.003Z,65.70
2017-11-22T13:32:44.289Z,65.60
2017-11-22T13:35:12.421Z,64.80
2017-11-22T13:37:40.637Z,65.70
2017-11-22T13:40:08.790Z,65.90
2017-11-22T13:42:36.958Z,65.30
2017-11-22T13:45:05.114Z,65.60
2017-11-22T13:47:33.291Z,65.20
2017-11-22T13:50:01.462Z,65.80
2017-11-22T13:52:29.613Z,65.80
2017-11-22T13:54:57.895Z,65.30
2017-11-22T13:57:26.072Z,66.00
2017-11-22T13:59:54.219Z,65.60
2017-11-22T14:02:23.126Z,66.20
2017-11-22T14:04:52.088Z,65.90
2017-11-22T14:07:20.237Z,65.80
2017-11-22T14:09:48.386Z,65.40
2017-11-22T14:12:16.695Z,65.90
2017-11-22T14:14:44.838Z,65.60
2017-11-22T14:17:12.991Z,65.10
2017-11-22T14:19:41.162Z,64.20
2017-11-22T14:22:09.318Z,64.80
2017-11-22T14:24:38.219Z,65.40
2017-11-22T14:27:07.201Z,66.20
2017-11-22T14:29:35.349Z,66.20
2017-11-22T14:32:03.507Z,66.10
2017-11-22T14:34:31.670Z,66.10
2017-11-22T14:36:59.806Z,66.00
2017-11-22T14:39:27.973Z,66.70
2017-11-22T14:41:56.128Z,66.90
2017-11-22T14:44:25.268Z,67.50
2017-11-22T14:46:53.410Z,67.70
2017-11-22T14:49:22.466Z,68.10
2017-11-22T14:51:50.598Z,68.00
2017-11-22T14:54:18.770Z,68.00
2017-11-22T14:56:46.946Z,68.00
2017-11-22T14:59:15.094Z,68.00
2017-11-22T15:01:43.264Z,68.60
2017-11-22T15:04:11.587Z,68.90
2017-11-22T15:06:39.716Z,69.20
2017-11-22T15:09:07.899Z,69.40
2017-11-22T15:11:36.034Z,69.70
2017-11-22T15:14:04.193Z,69.70
2017-11-22T15:16:32.366Z,69.60
2017-11-22T15:19:00.511Z,69.80
2017-11-22T15:21:28.816Z,70.00
2017-11-22T15:23:56.951Z,70.00
2017-11-22T15:26:25.131Z,69.70
2017-11-22T15:28:53.278Z,69.70
2017-11-22T15:31:21.413Z,69.90
2017-11-22T15:33:57.490Z,69.90
2017-11-22T15:36:25.772Z,70.20
2017-11-22T15:38:53.937Z,70.50
2017-11-22T15:41:22.092Z,70.60
2017-11-22T15:43:50.240Z,70.70
2017-11-22T15:46:18.407Z,70.80
2017-11-22T15:48:46.544Z,70.90
2017-11-22T15:51:14.712Z,71.00
2017-11-22T15:53:42.863Z,71.20
2017-11-22T15:56:11.065Z,71.20
2017-11-22T15:58:39.198Z,71.00
2017-11-22T16:01:07.365Z,71.10
2017-11-22T16:03:35.548Z,71.20
2017-11-22T16:06:03.694Z,71.50
2017-11-22T16:08:31.861Z,71.50
2017-11-22T16:11:00.011Z,71.70
2017-11-22T16:13:28.335Z,71.90
2017-11-22T16:15:56.462Z,72.00
2017-11-22T16:18:24.628Z,72.30
2017-11-22T16:20:52.782Z,72.40
2017-11-22T16:23:20.923Z,72.50
2017-11-22T16:25:49.099Z,72.80
2017-11-22T16:28:17.268Z,73.00
2017-11-22T16:30:45.407Z,73.40
2017-11-22T16:33:13.579Z,74.20
2017-11-22T16:35:41.776Z,74.10
2017-11-22T16:38:10.710Z,75.00
2017-11-22T16:40:38.884Z,75.00
2017-11-22T16:43:07.027Z,75.30
2017-11-22T16:45:35.180Z,75.10
2017-11-22T16:48:04.120Z,74.20
2017-11-22T16:50:32.324Z,74.20
2017-11-22T16:53:00.478Z,73.90
2017-11-22T16:55:28.649Z,73.80
2017-11-22T16:57:56.808Z,73.70
2017-11-22T17:00:25.038Z,73.50
2017-11-22T17:02:53.964Z,74.30
2017-11-22T17:05:22.089Z,74.30
2017-11-22T17:07:50.282Z,74.20
2017-11-22T17:10:19.201Z,74.30
2017-11-22T17:12:47.414Z,74.20
2017-11-22T17:15:15.568Z,74.40
2017-11-22T17:17:43.734Z,74.20
2017-11-22T17:20:11.910Z,74.10
2017-11-22T17:22:40.056Z,74.10
2017-11-22T17:25:08.220Z,73.80
2017-11-22T17:27:37.283Z,73.60
2017-11-22T17:30:05.451Z,73.50
2017-11-22T17:32:33.638Z,73.40
2017-11-22T17:35:01.771Z,73.30
2017-11-22T17:37:29.943Z,73.30
2017-11-22T17:39:58.086Z,73.10
2017-11-22T17:42:26.227Z,73.00
2017-11-22T17:44:54.511Z,72.70
2017-11-22T17:47:22.668Z,72.50
2017-11-22T17:49:50.869Z,72.90
2017-11-22T17:52:19.773Z,72.10
2017-11-22T17:54:47.918Z,71.80
2017-11-22T17:57:16.103Z,71.60
2017-11-22T17:59:44.239Z,71.80
2017-11-22T18:02:12.547Z,71.90
2017-11-22T18:04:40.697Z,71.80
2017-11-22T18:07:08.883Z,71.60
2017-11-22T18:09:37.062Z,71.60
2017-11-22T18:12:05.220Z,71.50
2017-11-22T18:14:38.954Z,70.90
2017-11-22T18:17:08.545Z,70.80
2017-11-22T18:19:39.602Z,70.50
2017-11-22T18:22:08.541Z,70.50
2017-11-22T18:24:36.710Z,70.50
2017-11-22T18:27:05.619Z,70.40
2017-11-22T18:29:33.838Z,69.70
2017-11-22T18:32:02.830Z,69.50
2017-11-22T18:34:30.986Z,69.50
2017-11-22T18:36:59.171Z,69.60
2017-11-22T18:39:27.395Z,69.70
2017-11-22T18:41:55.614Z,69.20
2017-11-22T18:44:23.776Z,69.30
2017-11-22T18:46:51.927Z,69.50
2017-11-22T18:49:20.124Z,69.20
2017-11-22T18:51:48.310Z,69.00
2017-11-22T18:54:18.439Z,69.10
2017-11-22T18:56:46.628Z,69.40
2017-11-22T18:59:14.852Z,70.00
2017-11-22T19:01:42.983Z,69.20
2017-11-22T19:04:11.147Z,70.60
2017-11-22T19:06:39.294Z,70.90
2017-11-22T19:09:07.497Z,70.80
2017-11-22T19:11:35.630Z,70.80
2017-11-22T19:14:06.255Z,71.00
2017-11-22T19:16:34.473Z,70.90
2017-11-22T19:19:03.356Z,71.00
2017-11-22T19:21:32.342Z,70.90
2017-11-22T19:24:01.266Z,70.70
2017-11-22T19:26:29.416Z,70.70
2017-11-22T19:28:58.458Z,71.00
2017-11-22T19:31:26.619Z,71.00
2017-11-22T19:33:54.808Z,70.90
2017-11-22T19:36:22.955Z,70.90
2017-11-22T19:38:51.108Z,70.70
2017-11-22T19:41:20.056Z,70.80
2017-11-22T19:43:48.176Z,70.80
2017-11-22T19:46:16.513Z,70.60
2017-11-22T19:48:44.682Z,70.50
2017-11-22T19:53:48.612Z,69.90
2017-11-22T19:56:16.771Z,69.80
2017-11-22T19:58:44.947Z,69.70
2017-11-22T20:01:13.072Z,69.70
2017-11-22T20:03:41.379Z,69.20
2017-11-22T20:06:09.528Z,69.60
2017-11-22T20:08:37.680Z,69.40
2017-11-22T20:11:05.858Z,69.20
2017-11-22T20:13:34.792Z,69.30
2017-11-22T20:16:02.958Z,69.20
2017-11-22T20:18:31.128Z,69.60
2017-11-22T20:20:59.406Z,69.70
2017-11-22T20:23:27.552Z,69.20
2017-11-22T20:25:56.510Z,69.10
2017-11-22T20:28:24.669Z,69.70
2017-11-22T20:30:52.808Z,69.10
2017-11-22T20:33:20.996Z,69.10
2017-11-22T20:35:49.171Z,69.20
2017-11-22T20:38:17.448Z,69.80
2017-11-22T20:40:45.617Z,69.00
2017-11-22T20:43:13.846Z,69.00
2017-11-22T20:45:42.018Z,69.30
2017-11-22T20:48:10.142Z,69.20
2017-11-22T20:50:38.318Z,69.20
2017-11-22T20:53:06.476Z,69.90
2017-11-22T20:55:34.623Z,69.10
2017-11-22T20:58:03.579Z,69.20
2017-11-22T21:00:31.700Z,69.20
2017-11-22T21:03:00.032Z,69.00
2017-11-22T21:05:28.209Z,68.80
2017-11-22T21:07:56.367Z,69.10
2017-11-22T21:10:24.504Z,68.80
2017-11-22T21:12:52.667Z,68.90
2017-11-22T21:15:20.833Z,69.30
2017-11-22T21:17:49.744Z,69.40
2017-11-22T21:20:18.025Z,69.40
2017-11-22T21:22:46.195Z,69.30
2017-11-22T21:25:14.362Z,69.20
2017-11-22T21:27:42.524Z,68.90
2017-11-22T21:30:11.431Z,68.60
2017-11-22T21:32:39.568Z,68.60
2017-11-22T21:35:07.874Z,68.60
2017-11-22T21:37:36.777Z,68.60
2017-11-22T21:40:04.903Z,68.60
2017-11-22T21:42:33.098Z,68.80
2017-11-22T21:45:01.247Z,68.80
2017-11-22T21:47:29.377Z,69.10
2017-11-22T21:49:57.561Z,69.30
2017-11-22T21:52:25.825Z,69.60
2017-11-22T21:54:54.728Z,69.80
2017-11-22T21:57:22.947Z,69.80
2017-11-22T21:59:51.091Z,69.60
2017-11-22T22:02:19.250Z,69.90
2017-11-22T22:04:47.414Z,69.70
2017-11-22T22:07:15.559Z,69.60
2017-11-22T22:09:44.494Z,69.70
2017-11-22T22:12:12.655Z,69.70
2017-11-22T22:14:40.972Z,70.00
2017-11-22T22:17:09.116Z,70.20
2017-11-22T22:19:37.261Z,70.00
2017-11-22T22:22:05.424Z,70.00
2017-11-22T22:24:34.334Z,69.70
2017-11-22T22:27:02.517Z,69.70
2017-11-22T22:29:30.657Z,69.60
2017-11-22T22:31:59.578Z,70.40
2017-11-22T22:34:27.879Z,70.30
2017-11-22T22:36:56.006Z,70.20
2017-11-22T22:39:24.158Z,70.90
2017-11-22T22:41:52.313Z,70.70
2017-11-22T22:44:20.467Z,71.80
2017-11-22T22:46:48.634Z,71.60
2017-11-22T22:49:16.818Z,71.30
2017-11-22T22:51:44.961Z,70.80
2017-11-22T22:54:13.073Z,70.60
2017-11-22T22:56:41.373Z,70.60
2017-11-22T22:59:09.510Z,70.20
2017-11-22T23:01:37.634Z,70.10
2017-11-22T23:04:05.914Z,69.90
2017-11-22T23:06:34.054Z,70.30
2017-11-22T23:09:02.259Z,70.40
2017-11-22T23:11:31.147Z,70.80
2017-11-22T23:13:59.304Z,70.80
2017-11-22T23:16:27.486Z,70.70
2017-11-22T23:18:56.407Z,71.00
2017-11-22T23:21:24.539Z,71.00
2017-11-22T23:23:52.709Z,70.60
2017-11-22T23:26:20.855Z,70.40
2017-11-22T23:28:49.119Z,70.70
2017-11-22T23:31:17.247Z,71.00
2017-11-22T23:33:46.178Z,71.30
2017-11-22T23:36:14.350Z,71.30
2017-11-22T23:38:42.524Z,70.80
2017-11-22T23:41:10.651Z,70.90
2017-11-22T23:43:39.580Z,70.70
2017-11-22T23:46:07.847Z,70.60
2017-11-22T23:48:35.974Z,70.80
2017-11-22T23:51:04.139Z,70.70
2017-11-22T23:53:32.270Z,70.60
2017-11-22T23:56:00.411Z,70.50
2017-11-22T23:58:29.337Z,70.80
